Time;durP1;ratioP1;P1;durP2;ratioP2;P2;SDS_P1;SDS_P2;PMS_P1;PMS_P2;Temp;Humidity;BMP_temperature;BMP_pressure;BME280_temperature;BME280_humidity;BME280_pressure;Samples;Min_cycle;Max_cycle;Signal;HPM_P1;HPM_P2
2021/08/12 00:01:07;;;;;;;5.10;2.70;;;19.20;82.00;;;;;;5073261;28;20504;-75
2021/08/12 00:03:33;;;;;;;5.80;2.72;;;19.10;82.10;;;;;;5091389;28;20102;-75
2021/08/12 00:05:59;;;;;;;6.43;3.13;;;19.10;82.20;;;;;;5073016;28;20036;-75
2021/08/12 00:08:25;;;;;;;5.45;2.60;;;19.10;82.30;;;;;;5091438;28;20028;-75
2021/08/12 00:10:51;;;;;;;9.45;2.80;;;19.10;82.60;;;;;;5091349;28;20504;-74
2021/08/12 00:13:21;;;;;;;5.55;2.70;;;19.10;82.90;;;;;;5091320;28;20205;-74
2021/08/12 00:15:47;;;;;;;5.00;2.88;;;19.10;83.20;;;;;;5091083;28;20035;-74
2021/08/12 00:18:13;;;;;;;5.75;3.17;;;19.10;83.40;;;;;;5091067;28;20035;-74
2021/08/12 00:20:39;;;;;;;5.88;2.85;;;19.10;84.80;;;;;;5089834;28;20063;-75
2021/08/12 00:23:06;;;;;;;5.68;3.30;;;19.00;84.70;;;;;;5090967;28;20032;-75
2021/08/12 00:25:31;;;;;;;6.22;3.15;;;18.90;85.00;;;;;;5090890;28;20437;-75
2021/08/12 00:27:57;;;;;;;8.13;4.10;;;18.90;85.40;;;;;;5072695;28;20028;-74
2021/08/12 00:30:23;;;;;;;8.98;2.50;;;18.80;85.80;;;;;;5090865;28;20016;-75
2021/08/12 00:32:48;;;;;;;5.35;3.17;;;18.80;86.10;;;;;;5072611;28;20031;-75
2021/08/12 00:35:14;;;;;;;5.07;2.60;;;18.90;86.70;;;;;;5090927;28;20063;-75
2021/08/12 00:37:41;;;;;;;5.45;3.17;;;18.80;86.80;;;;;;5092739;28;20051;-75
2021/08/12 00:40:07;;;;;;;7.32;3.50;;;18.80;87.20;;;;;;5111004;28;20032;-74
2021/08/12 00:42:33;;;;;;;5.22;3.00;;;18.80;87.70;;;;;;5092773;28;20089;-75
2021/08/12 00:44:59;;;;;;;6.85;3.63;;;18.80;88.20;;;;;;5092661;28;20043;-75
2021/08/12 00:47:25;;;;;;;6.07;3.67;;;18.70;88.20;;;;;;5110568;28;20031;-75
2021/08/12 00:49:51;;;;;;;10.52;3.35;;;18.60;88.60;;;;;;5092406;28;20505;-74
2021/08/12 00:52:17;;;;;;;7.55;3.22;;;18.60;89.10;;;;;;5110865;28;20034;-75
2021/08/12 00:54:43;;;;;;;6.53;3.15;;;18.50;89.60;;;;;;5110945;28;20023;-75
2021/08/12 00:57:09;;;;;;;5.90;2.85;;;18.50;89.40;;;;;;5092510;28;20023;-75
2021/08/12 00:59:40;;;;;;;14.63;2.88;;;18.50;89.40;;;;;;5092561;28;20024;-74
2021/08/12 01:02:09;;;;;;;4.07;2.30;;;18.50;89.50;;;;;;5110786;28;20392;-74
2021/08/12 01:04:39;;;;;;;5.15;2.60;;;18.50;89.70;;;;;;5092591;28;20556;-75
2021/08/12 01:07:27;;;;;;;7.28;3.53;;;18.50;90.00;;;;;;5110610;28;20122;-74
2021/08/12 01:10:21;;;;;;;5.53;3.10;;;18.50;90.20;;;;;;5110388;28;20472;-75
2021/08/12 01:12:56;;;;;;;3.88;2.72;;;18.40;90.30;;;;;;5092109;28;20507;-75
2021/08/12 01:15:31;;;;;;;5.67;2.80;;;18.40;90.20;;;;;;5092162;28;20032;-74
2021/08/12 01:18:11;;;;;;;4.68;2.97;;;18.40;90.40;;;;;;5091786;28;20265;-75
2021/08/12 01:20:47;;;;;;;4.93;3.13;;;18.30;90.40;;;;;;5110465;28;20027;-75
2021/08/12 01:23:14;;;;;;;7.23;3.10;;;18.30;90.60;;;;;;5110306;28;20031;-75
2021/08/12 01:25:42;;;;;;;8.65;3.60;;;18.40;90.70;;;;;;5091789;28;20027;-75
2021/08/12 01:28:20;;;;;;;6.43;3.30;;;18.30;90.50;;;;;;5109954;28;20027;-75
2021/08/12 01:30:52;;;;;;;5.80;3.20;;;18.30;90.50;;;;;;5110172;28;20661;-75
2021/08/12 01:33:38;;;;;;;5.15;2.97;;;18.30;90.50;;;;;;5089145;28;20035;-74
2021/08/12 01:36:06;;;;;;;6.95;3.55;;;18.30;90.60;;;;;;5071145;28;20039;-74
2021/08/12 01:38:32;;;;;;;7.18;2.60;;;18.30;90.70;;;;;;5089866;28;20043;-75
2021/08/12 01:40:59;;;;;;;6.47;3.30;;;18.40;90.60;;;;;;5071426;28;20146;-73
2021/08/12 01:43:27;;;;;;;7.10;3.17;;;18.30;90.60;;;;;;5089609;28;20057;-75
2021/08/12 01:45:54;;;;;;;5.07;3.00;;;18.40;90.80;;;;;;5071000;28;20046;-74
2021/08/12 01:48:24;;;;;;;5.13;2.58;;;18.40;91.00;;;;;;5089426;28;20076;-75
2021/08/12 01:50:52;;;;;;;5.28;2.70;;;18.30;91.10;;;;;;5089391;28;20028;-74
2021/08/12 01:53:20;;;;;;;5.43;3.03;;;18.30;91.10;;;;;;5071185;28;20492;-75
2021/08/12 01:55:47;;;;;;;5.93;3.70;;;18.30;91.30;;;;;;5089326;28;20036;-74
2021/08/12 01:58:16;;;;;;;5.70;3.15;;;18.20;91.10;;;;;;5070899;28;20020;-74
2021/08/12 02:00:44;;;;;;;5.80;2.90;;;18.30;91.10;;;;;;5071224;28;20080;-75
2021/08/12 02:03:12;;;;;;;6.35;2.75;;;18.30;91.20;;;;;;5070936;28;20036;-75
2021/08/12 02:05:38;;;;;;;5.35;3.03;;;18.30;91.40;;;;;;5070885;28;20095;-75
2021/08/12 02:08:05;;;;;;;5.45;3.00;;;18.30;91.30;;;;;;5070661;28;20507;-73
2021/08/12 02:10:30;;;;;;;7.10;2.50;;;18.30;91.30;;;;;;5070776;28;20065;-74
2021/08/12 02:12:56;;;;;;;4.85;2.75;;;18.20;91.50;;;;;;5088932;28;20063;-75
2021/08/12 02:15:22;;;;;;;8.20;3.58;;;18.20;91.60;;;;;;5088645;28;20500;-75
2021/08/12 02:17:47;;;;;;;5.68;3.15;;;18.10;91.70;;;;;;5070406;28;20404;-75
2021/08/12 02:20:18;;;;;;;5.82;3.00;;;18.10;91.80;;;;;;5088889;28;20032;-74
2021/08/12 02:23:08;;;;;;;4.50;2.72;;;18.10;91.90;;;;;;5088740;28;20024;-75
2021/08/12 02:25:40;;;;;;;6.40;2.95;;;18.10;91.90;;;;;;5088828;28;20023;-75
2021/08/12 02:28:09;;;;;;;5.55;2.95;;;18.00;92.00;;;;;;5088471;28;20067;-75
2021/08/12 02:30:39;;;;;;;7.68;2.70;;;18.00;92.10;;;;;;5088880;28;20112;-74
2021/08/12 02:33:08;;;;;;;8.05;3.53;;;18.00;92.40;;;;;;5088544;28;20075;-74
2021/08/12 02:35:37;;;;;;;6.63;2.88;;;18.00;92.20;;;;;;5070500;28;20060;-75
2021/08/12 02:38:05;;;;;;;6.13;3.10;;;18.00;92.30;;;;;;5088455;28;20032;-75
2021/08/12 02:40:31;;;;;;;5.10;2.53;;;18.00;92.40;;;;;;5070340;28;20031;-75
2021/08/12 02:42:59;;;;;;;5.10;2.97;;;18.00;92.30;;;;;;5070360;28;20404;-74
2021/08/12 02:45:26;;;;;;;6.95;3.13;;;18.00;92.50;;;;;;5087696;28;20267;-74
2021/08/12 02:47:54;;;;;;;4.45;2.28;;;18.00;92.60;;;;;;5070220;28;20508;-75
2021/08/12 02:50:21;;;;;;;5.25;2.85;;;17.90;92.70;;;;;;5070296;28;20077;-75
2021/08/12 02:52:47;;;;;;;6.38;2.70;;;17.90;93.00;;;;;;5088566;28;20054;-75
2021/08/12 02:55:15;;;;;;;9.90;3.00;;;17.90;92.90;;;;;;5088426;28;20496;-75
2021/08/12 02:57:41;;;;;;;8.43;3.17;;;17.90;92.90;;;;;;5088387;28;20495;-74
2021/08/12 03:00:07;;;;;;;5.07;2.90;;;17.90;93.10;;;;;;5069993;28;20032;-75
2021/08/12 03:02:34;;;;;;;6.80;3.10;;;17.90;92.80;;;;;;5070257;28;20035;-74
2021/08/12 03:05:00;;;;;;;4.88;2.80;;;17.90;92.90;;;;;;5088230;28;20035;-75
2021/08/12 03:07:27;;;;;;;4.65;2.45;;;18.00;93.00;;;;;;5070358;28;20032;-75
2021/08/12 03:09:54;;;;;;;6.60;3.65;;;18.00;93.20;;;;;;5088156;28;20500;-75
2021/08/12 03:12:21;;;;;;;7.57;4.10;;;18.00;93.00;;;;;;5088285;28;20056;-75
2021/08/12 03:14:49;;;;;;;5.63;2.28;;;17.90;92.90;;;;;;5069940;28;20505;-74
2021/08/12 03:17:16;;;;;;;8.00;3.00;;;18.00;92.90;;;;;;5088331;28;20524;-75
2021/08/12 03:19:44;;;;;;;5.00;2.80;;;18.00;93.10;;;;;;5088108;28;20021;-76
2021/08/12 03:22:12;;;;;;;4.47;2.63;;;17.90;93.20;;;;;;5069725;28;20070;-74
2021/08/12 03:24:48;;;;;;;9.50;3.00;;;18.00;93.30;;;;;;5070210;28;20099;-75
2021/08/12 03:27:15;;;;;;;11.03;3.63;;;17.90;93.30;;;;;;5069896;28;20032;-75
2021/08/12 03:29:43;;;;;;;4.82;2.78;;;17.90;93.30;;;;;;5087846;28;20072;-74
2021/08/12 03:32:10;;;;;;;11.80;3.05;;;17.90;93.30;;;;;;5069703;28;20060;-74
2021/08/12 03:34:37;;;;;;;5.25;3.25;;;18.00;93.30;;;;;;5087816;28;20044;-74
2021/08/12 03:37:03;;;;;;;4.97;2.83;;;17.90;93.50;;;;;;5069593;28;20080;-75
2021/08/12 03:39:29;;;;;;;4.78;2.55;;;18.00;93.30;;;;;;5087970;28;20104;-75
2021/08/12 03:41:55;;;;;;;5.72;3.38;;;18.00;93.30;;;;;;5069578;28;20028;-74
2021/08/12 03:44:20;;;;;;;5.10;2.88;;;18.10;93.10;;;;;;5069745;28;20024;-74
2021/08/12 03:46:46;;;;;;;6.45;3.35;;;18.10;93.00;;;;;;5088034;28;20243;-75
2021/08/12 03:49:12;;;;;;;5.03;2.70;;;18.10;93.10;;;;;;5069819;28;20440;-74
2021/08/12 03:51:38;;;;;;;5.68;3.30;;;18.10;93.20;;;;;;5087921;28;20039;-74
2021/08/12 03:54:04;;;;;;;9.77;3.03;;;18.10;93.20;;;;;;5069610;28;20024;-74
2021/08/12 03:56:29;;;;;;;5.20;3.10;;;18.10;93.20;;;;;;5090603;28;20115;-75
2021/08/12 03:58:55;;;;;;;8.88;2.83;;;18.20;93.10;;;;;;5072883;28;20028;-75
2021/08/12 04:01:21;;;;;;;12.30;3.10;;;18.20;93.20;;;;;;5091546;28;20032;-74
2021/08/12 04:03:46;;;;;;;13.65;3.95;;;18.20;93.30;;;;;;5073159;28;20031;-75
2021/08/12 04:06:12;;;;;;;8.68;2.30;;;18.20;93.10;;;;;;5073297;28;20043;-75
2021/08/12 04:08:38;;;;;;;6.78;2.47;;;18.30;93.20;;;;;;5091295;28;20054;-75
2021/08/12 04:11:04;;;;;;;5.28;2.58;;;18.30;93.20;;;;;;5073078;28;20043;-75
2021/08/12 04:13:29;;;;;;;8.98;2.80;;;18.40;93.10;;;;;;5073117;28;20500;-74
2021/08/12 04:15:55;;;;;;;5.90;3.15;;;18.40;93.30;;;;;;5091118;28;20020;-75
2021/08/12 04:18:21;;;;;;;7.90;3.20;;;18.60;92.50;;;;;;5072823;28;20551;-75
2021/08/12 04:20:47;;;;;;;10.18;3.10;;;18.70;92.40;;;;;;5073338;28;20032;-73
2021/08/12 04:23:13;;;;;;;7.35;3.28;;;18.80;92.30;;;;;;5091308;28;20024;-74
2021/08/12 04:25:40;;;;;;;12.68;3.30;;;18.80;92.20;;;;;;5090926;28;20480;-75
2021/08/12 04:28:06;;;;;;;7.10;2.75;;;18.90;92.00;;;;;;5072545;28;20035;-75
2021/08/12 04:30:32;;;;;;;6.20;2.33;;;19.00;92.00;;;;;;5090971;28;20043;-75
2021/08/12 04:32:58;;;;;;;5.10;2.33;;;19.10;91.80;;;;;;5072615;28;20040;-74
2021/08/12 04:35:23;;;;;;;3.83;2.78;;;19.20;91.80;;;;;;5092722;28;20048;-75
2021/08/12 04:37:49;;;;;;;4.30;2.30;;;19.30;91.70;;;;;;5072511;28;20039;-75
2021/08/12 04:40:17;;;;;;;4.43;2.80;;;19.40;91.80;;;;;;5072952;28;20040;-75
2021/08/12 04:42:44;;;;;;;4.55;2.45;;;19.50;91.40;;;;;;5072477;28;20031;-74
2021/08/12 04:45:10;;;;;;;7.45;3.00;;;19.70;91.30;;;;;;5072358;28;20581;-74
2021/08/12 04:47:35;;;;;;;5.95;2.63;;;19.70;91.30;;;;;;5090438;28;20530;-75
2021/08/12 04:50:01;;;;;;;5.07;2.80;;;19.90;91.20;;;;;;5090394;28;20103;-74
2021/08/12 04:52:27;;;;;;;10.45;2.50;;;20.00;90.90;;;;;;5072352;28;20089;-74
2021/08/12 04:54:52;;;;;;;6.43;2.75;;;20.10;90.80;;;;;;5090547;28;20118;-75
2021/08/12 04:57:18;;;;;;;5.30;2.97;;;20.20;90.80;;;;;;5072180;28;20024;-75
2021/08/12 04:59:44;;;;;;;5.85;3.00;;;20.30;90.70;;;;;;5090390;28;20024;-74
2021/08/12 05:02:09;;;;;;;4.72;2.90;;;20.40;90.50;;;;;;5071973;28;20403;-75
2021/08/12 05:04:35;;;;;;;3.78;2.17;;;20.60;90.10;;;;;;5090306;28;20028;-75
2021/08/12 05:07:01;;;;;;;8.45;3.13;;;20.80;89.20;;;;;;5089519;28;20039;-75
2021/08/12 05:09:26;;;;;;;11.65;2.40;;;21.00;90.00;;;;;;5071873;28;20031;-75
2021/08/12 05:11:52;;;;;;;6.88;2.80;;;21.20;89.20;;;;;;5089968;28;20442;-75
2021/08/12 05:14:17;;;;;;;4.88;2.58;;;21.30;86.50;;;;;;5071824;28;20450;-77
2021/08/12 05:16:43;;;;;;;8.02;2.63;;;21.50;85.40;;;;;;5072009;28;20040;-75
2021/08/12 05:19:09;;;;;;;4.22;2.50;;;21.80;83.90;;;;;;5089967;28;20059;-75
2021/08/12 05:21:37;;;;;;;4.68;2.90;;;22.00;83.50;;;;;;5090092;28;20036;-74
2021/08/12 05:24:03;;;;;;;9.70;2.60;;;22.20;82.80;;;;;;5071432;28;20032;-75
2021/08/12 05:26:29;;;;;;;4.97;2.70;;;22.50;82.40;;;;;;5071720;28;20050;-75
2021/08/12 05:28:54;;;;;;;6.15;2.90;;;22.80;80.60;;;;;;5071625;28;20114;-75
2021/08/12 05:31:20;;;;;;;5.85;2.67;;;23.00;79.60;;;;;;5071477;28;20036;-74
2021/08/12 05:33:46;;;;;;;4.85;2.55;;;23.30;78.80;;;;;;5075531;28;20050;-74
2021/08/12 05:36:11;;;;;;;3.70;2.20;;;23.50;78.60;;;;;;5091809;28;20032;-75
2021/08/12 05:38:37;;;;;;;6.45;2.85;;;23.60;77.90;;;;;;5109951;28;20020;-75
2021/08/12 05:41:03;;;;;;;6.15;2.58;;;23.70;77.00;;;;;;5109877;28;20027;-75
2021/08/12 05:43:29;;;;;;;10.80;2.88;;;23.80;76.20;;;;;;5109767;28;20053;-74
2021/08/12 05:45:55;;;;;;;5.70;3.08;;;23.90;75.50;;;;;;5091566;28;20236;-74
2021/08/12 05:48:21;;;;;;;9.07;2.95;;;24.10;74.40;;;;;;5109755;28;20024;-74
2021/08/12 05:50:48;;;;;;;6.38;2.75;;;24.40;72.90;;;;;;5091485;28;20445;-75
2021/08/12 05:53:16;;;;;;;4.88;2.75;;;24.70;71.90;;;;;;5091734;28;20118;-75
2021/08/12 05:55:42;;;;;;;5.88;2.97;;;25.30;69.50;;;;;;5109934;28;20104;-74
2021/08/12 05:58:08;;;;;;;3.70;2.13;;;25.80;67.30;;;;;;5091263;28;20031;-76
2021/08/12 06:00:34;;;;;;;3.28;2.40;;;26.10;65.10;;;;;;5109671;28;20071;-76
2021/08/12 06:03:07;;;;;;;13.00;2.55;;;26.70;61.20;;;;;;5091225;28;20031;-75
2021/08/12 06:05:33;;;;;;;10.88;2.78;;;27.40;58.50;;;;;;5109326;28;20088;-76
2021/08/12 06:08:04;;;;;;;4.00;2.53;;;28.20;56.20;;;;;;5091002;28;20027;-75
2021/08/12 06:10:31;;;;;;;10.95;3.13;;;28.90;53.40;;;;;;5109475;28;20537;-76
2021/08/12 06:12:57;;;;;;;8.40;2.90;;;29.70;51.10;;;;;;5090932;28;20024;-76
2021/08/12 06:15:23;;;;;;;9.20;2.90;;;30.40;48.30;;;;;;5109370;28;20036;-76
2021/08/12 06:17:49;;;;;;;4.97;2.50;;;30.90;46.80;;;;;;5109094;28;20022;-76
2021/08/12 06:20:16;;;;;;;3.50;2.42;;;31.60;44.10;;;;;;5089946;28;20058;-75
2021/08/12 06:22:42;;;;;;;3.95;2.45;;;31.90;43.20;;;;;;5109124;28;20034;-75
2021/08/12 06:25:08;;;;;;;5.35;2.70;;;32.10;42.00;;;;;;5090818;28;20031;-76
2021/08/12 06:27:34;;;;;;;3.92;2.22;;;32.40;41.70;;;;;;5109065;28;20036;-76
2021/08/12 06:29:59;;;;;;;3.20;2.65;;;32.40;41.00;;;;;;5108635;28;20073;-76
2021/08/12 06:32:27;;;;;;;5.50;2.55;;;32.80;40.30;;;;;;5109124;28;20407;-76
2021/08/12 06:34:53;;;;;;;3.15;2.50;;;33.50;39.60;;;;;;5095564;28;20504;-75
2021/08/12 06:37:18;;;;;;;5.65;2.78;;;34.00;38.30;;;;;;5088726;28;20024;-76
2021/08/12 06:39:44;;;;;;;4.40;2.78;;;34.10;37.40;;;;;;5088582;28;20400;-76
2021/08/12 06:42:10;;;;;;;3.15;2.47;;;34.50;36.80;;;;;;5070370;28;20020;-76
2021/08/12 06:44:35;;;;;;;6.28;2.72;;;34.60;35.90;;;;;;5088569;28;20082;-75
2021/08/12 06:47:01;;;;;;;4.80;2.75;;;34.90;35.30;;;;;;5088451;28;20036;-76
2021/08/12 06:49:27;;;;;;;4.00;2.88;;;35.00;35.30;;;;;;5070606;28;20020;-77
2021/08/12 06:51:53;;;;;;;4.68;2.65;;;35.10;35.50;;;;;;5088177;28;20027;-75
2021/08/12 06:54:19;;;;;;;4.85;3.20;;;34.90;34.70;;;;;;5070190;28;20377;-76
2021/08/12 06:56:44;;;;;;;8.15;2.72;;;34.90;34.80;;;;;;5070547;28;20452;-76
2021/08/12 06:59:10;;;;;;;3.80;2.60;;;35.00;35.10;;;;;;5070357;28;20034;-76
2021/08/12 07:01:35;;;;;;;10.48;2.63;;;35.50;34.30;;;;;;5088281;28;20567;-76
2021/08/12 07:04:01;;;;;;;3.97;2.50;;;35.90;33.60;;;;;;5088524;28;20058;-76
2021/08/12 07:06:27;;;;;;;7.65;2.45;;;35.70;33.00;;;;;;5088285;28;20129;-76
2021/08/12 07:08:53;;;;;;;7.75;3.20;;;35.10;34.00;;;;;;5088182;28;20020;-76
2021/08/12 07:11:23;;;;;;;5.30;2.88;;;34.80;34.60;;;;;;5070015;28;20032;-77
2021/08/12 07:13:49;;;;;;;5.30;2.58;;;35.00;35.40;;;;;;5069750;28;20460;-76
2021/08/12 07:16:16;;;;;;;4.05;2.58;;;35.20;34.80;;;;;;5069986;28;20119;-77
2021/08/12 07:18:42;;;;;;;4.63;2.60;;;35.00;35.40;;;;;;5088175;28;20077;-76
2021/08/12 07:21:19;;;;;;;8.27;2.55;;;35.30;34.90;;;;;;5088139;28;20024;-77
2021/08/12 07:23:46;;;;;;;6.47;2.95;;;35.40;35.20;;;;;;5088336;28;20520;-76
2021/08/12 07:26:14;;;;;;;9.10;3.58;;;35.20;34.60;;;;;;5069800;28;20039;-76
2021/08/12 07:28:40;;;;;;;4.53;2.75;;;35.20;34.20;;;;;;5087970;28;20042;-76
2021/08/12 07:31:07;;;;;;;3.50;2.72;;;35.40;34.30;;;;;;5072287;28;20575;-76
2021/08/12 07:33:33;;;;;;;4.30;2.63;;;35.80;33.60;;;;;;5091818;28;20093;-76
2021/08/12 07:35:59;;;;;;;5.90;3.13;;;35.90;34.00;;;;;;5091993;28;20630;-76
2021/08/12 07:38:24;;;;;;;8.02;2.60;;;35.80;34.10;;;;;;5091712;28;20039;-76
2021/08/12 07:40:50;;;;;;;9.88;2.72;;;36.20;33.70;;;;;;5091956;28;20028;-76
2021/08/12 07:43:16;;;;;;;4.75;2.92;;;35.60;32.60;;;;;;5091511;28;20465;-74
2021/08/12 07:45:41;;;;;;;9.85;2.90;;;34.80;34.80;;;;;;5073478;28;20040;-75
2021/08/12 07:48:07;;;;;;;4.95;2.72;;;33.90;36.30;;;;;;5073347;28;20028;-76
2021/08/12 07:50:32;;;;;;;8.02;2.65;;;33.30;36.80;;;;;;5073498;28;20036;-75
2021/08/12 07:52:58;;;;;;;5.10;2.85;;;32.90;37.00;;;;;;5091657;28;20103;-76
2021/08/12 07:55:24;;;;;;;7.30;2.75;;;32.40;37.90;;;;;;5091608;28;20032;-75
2021/08/12 07:57:50;;;;;;;4.93;3.00;;;31.90;38.50;;;;;;5091354;28;20096;-75
2021/08/12 08:00:16;;;;;;;5.82;3.17;;;31.90;39.00;;;;;;5091600;28;20032;-76
2021/08/12 08:02:46;;;;;;;4.53;2.35;;;32.50;38.50;;;;;;5091384;28;20025;-76
2021/08/12 08:05:19;;;;;;;7.47;2.67;;;33.50;37.60;;;;;;5091550;28;20038;-76
2021/08/12 08:07:47;;;;;;;5.20;2.85;;;34.60;35.60;;;;;;5091346;28;20130;-77
2021/08/12 08:10:14;;;;;;;6.50;2.97;;;35.30;35.10;;;;;;5073064;28;20374;-76
2021/08/12 08:12:41;;;;;;;6.30;2.90;;;36.00;34.70;;;;;;5073107;28;20034;-76
2021/08/12 08:15:08;;;;;;;8.32;3.03;;;36.60;33.60;;;;;;5091315;28;20397;-76
2021/08/12 08:17:33;;;;;;;4.32;2.95;;;37.10;32.40;;;;;;5091099;28;20032;-76
2021/08/12 08:20:00;;;;;;;5.40;3.00;;;37.10;31.90;;;;;;5091038;28;20031;-76
2021/08/12 08:22:25;;;;;;;6.97;2.85;;;36.90;32.40;;;;;;5090991;28;20055;-76
2021/08/12 08:24:51;;;;;;;11.68;2.55;;;36.10;32.40;;;;;;5072828;28;20066;-76
2021/08/12 08:27:17;;;;;;;6.05;3.15;;;35.10;34.10;;;;;;5090921;28;20047;-75
2021/08/12 08:29:42;;;;;;;7.15;2.58;;;34.40;35.10;;;;;;5091121;28;20391;-76
2021/08/12 08:32:08;;;;;;;7.72;2.97;;;33.80;35.60;;;;;;5072682;28;20563;-75
2021/08/12 08:34:34;;;;;;;6.68;2.45;;;32.80;36.40;;;;;;5090982;28;20043;-76
2021/08/12 08:37:00;;;;;;;3.47;2.67;;;32.30;37.70;;;;;;5090788;28;20048;-76
2021/08/12 08:39:26;;;;;;;8.98;3.03;;;32.40;38.30;;;;;;5072763;28;20040;-76
2021/08/12 08:41:53;;;;;;;3.72;2.65;;;33.20;37.20;;;;;;5089693;28;20016;-76
2021/08/12 08:44:21;;;;;;;6.85;3.28;;;34.00;36.30;;;;;;5090506;28;20073;-77
2021/08/12 08:46:47;;;;;;;4.10;2.80;;;34.90;35.50;;;;;;5071951;28;20036;-76
2021/08/12 08:49:17;;;;;;;6.57;3.72;;;35.50;33.80;;;;;;5090768;28;20032;-74
2021/08/12 08:51:44;;;;;;;7.60;3.03;;;36.00;32.20;;;;;;5090766;28;20389;-74
2021/08/12 08:54:12;;;;;;;4.57;2.88;;;36.40;32.60;;;;;;5090150;28;20488;-74
2021/08/12 08:56:40;;;;;;;4.07;2.75;;;36.60;32.10;;;;;;5072371;28;20941;-75
2021/08/12 08:59:07;;;;;;;6.90;2.90;;;36.60;31.60;;;;;;5090388;28;20497;-76
2021/08/12 09:01:34;;;;;;;6.10;3.15;;;36.20;32.40;;;;;;5090398;28;20404;-74
2021/08/12 09:04:00;;;;;;;4.68;2.65;;;36.20;32.80;;;;;;5071661;28;20481;-74
2021/08/12 09:06:25;;;;;;;6.55;3.25;;;35.70;33.60;;;;;;5071741;28;20097;-77
2021/08/12 09:08:51;;;;;;;4.30;2.67;;;34.90;34.50;;;;;;5090209;28;20063;-76
2021/08/12 09:11:16;;;;;;;7.55;3.15;;;34.20;35.40;;;;;;5090181;28;20042;-76
2021/08/12 09:13:42;;;;;;;4.60;2.70;;;33.50;35.60;;;;;;5071892;28;20020;-77
2021/08/12 09:16:34;;;;;;;5.63;2.70;;;33.10;36.10;;;;;;5071770;28;20127;-76
2021/08/12 09:19:23;;;;;;;8.13;2.83;;;33.80;34.50;;;;;;5071822;28;20058;-76
2021/08/12 09:21:54;;;;;;;4.88;3.42;;;34.30;34.70;;;;;;5071604;28;20028;-76
2021/08/12 09:24:20;;;;;;;5.15;2.80;;;35.10;34.40;;;;;;5090184;28;20028;-77
2021/08/12 09:26:46;;;;;;;8.15;3.35;;;35.90;33.20;;;;;;5089962;28;20463;-76
2021/08/12 09:29:25;;;;;;;3.90;2.53;;;36.20;33.40;;;;;;5072089;28;20028;-74
2021/08/12 09:31:56;;;;;;;5.03;2.60;;;36.80;32.50;;;;;;5071698;28;20090;-75
2021/08/12 09:34:22;;;;;;;5.60;2.50;;;37.10;30.80;;;;;;5080434;28;20129;-74
2021/08/12 09:37:02;;;;;;;4.95;2.75;;;36.60;31.00;;;;;;5092018;28;20395;-73
2021/08/12 09:39:29;;;;;;;5.10;2.78;;;36.50;30.50;;;;;;5109699;28;20509;-75
2021/08/12 09:41:56;;;;;;;9.07;2.80;;;36.30;29.90;;;;;;5091590;28;20027;-73
2021/08/12 09:44:52;;;;;;;11.38;2.90;;;36.30;31.40;;;;;;5091449;28;20074;-76
2021/08/12 09:47:18;;;;;;;7.70;3.03;;;36.20;31.70;;;;;;5091543;28;20121;-75
2021/08/12 09:49:50;;;;;;;6.25;2.63;;;36.50;31.80;;;;;;5109800;28;20036;-74
2021/08/12 09:52:37;;;;;;;6.13;3.05;;;36.80;29.90;;;;;;5109645;28;20381;-74
2021/08/12 09:55:16;;;;;;;5.90;2.80;;;36.80;29.70;;;;;;5109563;28;20488;-74
2021/08/12 09:57:53;;;;;;;5.32;3.78;;;37.20;30.60;;;;;;5091333;28;20066;-74
2021/08/12 10:00:24;;;;;;;3.13;2.15;;;37.10;30.00;;;;;;5109610;28;20028;-74
2021/08/12 10:02:50;;;;;;;2.97;2.20;;;37.20;29.20;;;;;;5109458;28;20024;-75
2021/08/12 10:05:16;;;;;;;2.15;1.65;;;37.70;27.50;;;;;;5109399;28;20074;-74
2021/08/12 10:08:03;;;;;;;3.40;1.90;;;38.00;27.40;;;;;;5090999;28;20468;-75
2021/08/12 10:10:29;;;;;;;3.40;2.25;;;38.10;26.40;;;;;;5109406;28;20097;-74
2021/08/12 10:12:59;;;;;;;6.60;1.90;;;38.00;26.60;;;;;;5109399;28;20507;-74
2021/08/12 10:15:33;;;;;;;2.70;1.80;;;38.00;26.60;;;;;;5090946;28;20061;-78
2021/08/12 10:18:02;;;;;;;2.50;1.67;;;37.50;26.90;;;;;;5108976;28;20062;-77
2021/08/12 10:20:33;;;;;;;2.53;1.65;;;37.10;27.10;;;;;;5109316;28;20084;-75
2021/08/12 10:23:04;;;;;;;5.97;1.65;;;36.60;27.70;;;;;;5090688;28;20031;-74
2021/08/12 10:25:34;;;;;;;3.05;2.10;;;36.20;28.30;;;;;;5090736;28;20055;-74
2021/08/12 10:28:05;;;;;;;4.82;1.98;;;35.70;28.60;;;;;;5108982;28;20035;-74
2021/08/12 10:30:32;;;;;;;3.38;1.60;;;35.30;28.90;;;;;;5090805;28;20629;-74
2021/08/12 10:33:03;;;;;;;4.90;2.25;;;34.90;28.60;;;;;;5091027;28;20051;-74
2021/08/12 10:35:31;;;;;;;2.95;2.17;;;34.50;29.20;;;;;;5090225;28;20059;-74
2021/08/12 10:37:58;;;;;;;2.42;1.52;;;34.10;29.60;;;;;;5088476;28;20669;-74
2021/08/12 10:40:27;;;;;;;3.35;1.80;;;33.90;29.90;;;;;;5088749;28;20016;-74
2021/08/12 10:42:54;;;;;;;2.83;2.05;;;33.80;29.80;;;;;;5088625;28;20039;-77
2021/08/12 10:45:22;;;;;;;3.20;1.73;;;33.60;29.60;;;;;;5088453;28;20063;-77
2021/08/12 10:47:54;;;;;;;2.55;2.03;;;33.30;29.70;;;;;;5088283;28;20082;-77
2021/08/12 10:50:23;;;;;;;3.55;1.65;;;33.20;30.10;;;;;;5088288;28;20020;-77
2021/08/12 10:53:07;;;;;;;3.38;2.33;;;32.90;29.70;;;;;;5070506;28;20039;-76
2021/08/12 10:55:34;;;;;;;2.92;1.80;;;32.80;30.50;;;;;;5070396;28;20134;-77
2021/08/12 10:58:25;;;;;;;3.13;2.22;;;32.60;30.70;;;;;;5088251;28;20024;-76
2021/08/12 11:00:55;;;;;;;2.83;1.92;;;32.40;30.90;;;;;;5056467;28;20629;-77
2021/08/12 11:03:33;;;;;;;3.47;1.60;;;32.20;31.50;;;;;;5070296;28;20535;-76
2021/08/12 11:06:16;;;;;;;2.53;1.52;;;32.20;32.00;;;;;;5090508;28;20040;-74
2021/08/12 11:11:37;;;;;;;3.50;2.17;;;31.60;30.70;;;;;;5092833;28;20540;-74
2021/08/12 11:14:08;;;;;;;4.55;2.25;;;31.50;32.60;;;;;;5074591;28;20032;-74
2021/08/12 11:16:40;;;;;;;2.90;2.00;;;31.40;33.40;;;;;;5092461;28;20396;-74
2021/08/12 11:19:10;;;;;;;4.05;1.70;;;31.40;33.30;;;;;;5074065;28;20028;-74
2021/08/12 11:21:40;;;;;;;2.65;1.70;;;31.40;33.00;;;;;;5092110;28;20040;-75
2021/08/12 11:24:30;;;;;;;3.70;2.22;;;31.40;32.50;;;;;;5074165;28;20605;-74
2021/08/12 11:26:57;;;;;;;7.45;2.10;;;31.40;33.10;;;;;;5073516;28;20123;-74
2021/08/12 11:29:23;;;;;;;5.25;2.03;;;31.40;33.00;;;;;;5073799;28;20024;-74
2021/08/12 11:31:48;;;;;;;3.13;2.33;;;31.40;33.10;;;;;;5073562;28;20119;-74
2021/08/12 11:34:15;;;;;;;3.22;1.80;;;31.30;32.60;;;;;;5092047;28;20119;-74
2021/08/12 11:37:04;;;;;;;4.05;2.28;;;31.30;33.30;;;;;;5073872;28;20032;-73
2021/08/12 11:39:30;;;;;;;5.53;1.63;;;31.20;32.90;;;;;;5073614;28;20457;-74
2021/08/12 11:41:56;;;;;;;3.75;1.85;;;30.90;33.20;;;;;;5073470;28;20031;-74
2021/08/12 11:44:21;;;;;;;3.33;1.85;;;30.90;33.30;;;;;;5073310;28;20036;-75
2021/08/12 11:46:48;;;;;;;6.68;2.47;;;30.90;33.50;;;;;;5091741;28;20493;-77
2021/08/12 11:49:16;;;;;;;4.43;1.90;;;30.90;33.20;;;;;;5091700;28;20028;-74
2021/08/12 11:51:42;;;;;;;4.50;2.15;;;30.80;34.10;;;;;;5091607;28;20814;-74
2021/08/12 11:54:22;;;;;;;2.33;1.67;;;30.80;34.50;;;;;;5091518;28;20031;-74
2021/08/12 11:56:51;;;;;;;7.93;1.83;;;30.90;34.60;;;;;;5073419;28;20032;-74
2021/08/12 11:59:26;;;;;;;2.38;1.50;;;30.80;33.60;;;;;;5091632;28;20024;-74
2021/08/12 12:01:52;;;;;;;3.17;1.80;;;30.80;34.40;;;;;;5073525;28;20028;-74
2021/08/12 12:04:19;;;;;;;3.63;1.70;;;30.70;34.40;;;;;;5091664;28;20269;-74
2021/08/12 12:06:47;;;;;;;4.28;1.80;;;30.80;34.60;;;;;;5091698;28;20040;-75
2021/08/12 12:09:18;;;;;;;2.38;1.67;;;30.70;34.70;;;;;;5073177;28;20028;-74
2021/08/12 12:11:55;;;;;;;2.90;1.80;;;30.90;35.00;;;;;;5073197;28;20036;-75
2021/08/12 12:14:23;;;;;;;3.85;2.10;;;31.00;34.70;;;;;;5073239;28;20024;-74
2021/08/12 12:17:07;;;;;;;3.10;1.65;;;31.00;34.40;;;;;;5091015;28;20089;-74
2021/08/12 12:19:33;;;;;;;4.20;2.10;;;30.90;34.50;;;;;;5091187;28;20036;-74
2021/08/12 12:21:58;;;;;;;3.63;1.92;;;30.90;35.00;;;;;;5072830;28;20020;-74
2021/08/12 12:24:24;;;;;;;3.10;1.75;;;30.90;35.00;;;;;;5091419;28;20107;-74
2021/08/12 12:26:57;;;;;;;5.35;1.92;;;30.90;35.00;;;;;;5072644;28;20032;-74
2021/08/12 12:29:23;;;;;;;3.30;1.90;;;31.00;34.80;;;;;;5072803;28;20523;-74
2021/08/12 12:32:01;;;;;;;3.38;1.67;;;30.90;34.50;;;;;;5090755;28;20038;-74
2021/08/12 12:34:27;;;;;;;3.33;1.95;;;31.00;35.40;;;;;;5082008;28;20113;-74
2021/08/12 12:36:53;;;;;;;3.85;1.60;;;31.00;35.10;;;;;;5092858;28;20055;-74
2021/08/12 12:39:20;;;;;;;4.90;1.90;;;31.00;34.40;;;;;;5111361;28;20135;-74
2021/08/12 12:41:46;;;;;;;7.15;1.83;;;31.10;34.60;;;;;;5111181;28;20964;-74
2021/08/12 12:44:14;;;;;;;2.88;1.70;;;31.00;34.30;;;;;;5092508;28;20028;-74
2021/08/12 12:46:40;;;;;;;5.30;2.10;;;30.90;34.80;;;;;;5092537;28;20064;-74
2021/08/12 12:49:29;;;;;;;3.40;1.75;;;30.70;34.80;;;;;;5092734;28;20673;-74
2021/08/12 12:52:05;;;;;;;4.18;1.98;;;30.50;34.90;;;;;;5111051;28;20035;-74
2021/08/12 12:54:33;;;;;;;3.42;1.98;;;30.40;35.80;;;;;;5092798;28;20076;-74